createdAt,value
2017-11-30T00:00:29.894Z,22.40
2017-11-30T00:02:57.402Z,22.57
2017-11-30T00:05:24.905Z,19.03
2017-11-30T00:07:53.149Z,26.80
2017-11-30T00:10:20.661Z,20.47
2017-11-30T00:12:49.279Z,23.10
2017-11-30T00:15:17.050Z,23.67
2017-11-30T00:17:44.555Z,22.20
2017-11-30T00:20:12.064Z,21.10
2017-11-30T00:22:39.550Z,21.77
2017-11-30T00:25:07.816Z,23.50
2017-11-30T00:27:35.298Z,20.80
2017-11-30T00:30:03.565Z,23.83
2017-11-30T00:32:31.057Z,27.20
2017-11-30T00:34:59.333Z,24.40
2017-11-30T00:37:26.838Z,23.40
2017-11-30T00:39:54.357Z,30.97
2017-11-30T00:42:33.770Z,21.17
2017-11-30T00:45:01.280Z,30.77
2017-11-30T00:47:28.765Z,26.73
2017-11-30T00:49:56.264Z,24.07
2017-11-30T00:52:23.751Z,25.63
2017-11-30T00:54:51.261Z,26.67
2017-11-30T00:57:18.766Z,25.13
2017-11-30T00:59:47.077Z,23.40
2017-11-30T01:02:14.576Z,26.20
2017-11-30T01:04:42.087Z,28.03
2017-11-30T01:07:10.337Z,23.00
2017-11-30T01:09:37.842Z,24.00
2017-11-30T01:12:06.098Z,25.87
2017-11-30T01:14:33.601Z,24.73
2017-11-30T01:17:01.865Z,25.10
2017-11-30T01:19:29.368Z,25.80
2017-11-30T01:21:57.610Z,28.33
2017-11-30T01:24:25.117Z,25.73
2017-11-30T01:26:53.369Z,24.83
2017-11-30T01:29:20.886Z,22.50
2017-11-30T01:31:49.148Z,26.07
2017-11-30T01:34:21.413Z,24.53
2017-11-30T01:36:48.898Z,26.07
2017-11-30T01:39:16.413Z,22.40
2017-11-30T01:41:43.901Z,24.83
2017-11-30T01:44:11.418Z,28.37
2017-11-30T01:46:38.915Z,27.47
2017-11-30T01:49:07.184Z,26.53
2017-11-30T01:51:34.668Z,27.03
2017-11-30T01:54:02.945Z,25.20
2017-11-30T01:56:31.272Z,25.90
2017-11-30T01:58:58.776Z,26.03
2017-11-30T02:01:26.282Z,21.90
2017-11-30T02:03:54.554Z,25.97
2017-11-30T02:06:22.053Z,27.10
2017-11-30T02:08:49.558Z,22.10
2017-11-30T02:11:17.054Z,27.97
2017-11-30T02:13:45.369Z,26.67
2017-11-30T02:16:13.645Z,25.10
2017-11-30T02:18:41.137Z,24.50
2017-11-30T02:21:09.409Z,23.33
2017-11-30T02:23:36.897Z,26.43
2017-11-30T02:26:06.282Z,24.90
2017-11-30T02:28:33.764Z,26.03
2017-11-30T02:31:02.041Z,29.43
2017-11-30T02:33:29.530Z,27.77
2017-11-30T02:35:57.816Z,24.00
2017-11-30T02:38:26.076Z,27.27
2017-11-30T02:40:53.589Z,30.30
2017-11-30T02:43:21.080Z,29.13
2017-11-30T02:45:48.599Z,22.73
2017-11-30T02:48:16.866Z,25.83
2017-11-30T02:50:44.377Z,27.60
2017-11-30T02:53:12.625Z,27.73
2017-11-30T02:55:40.135Z,27.80
2017-11-30T02:58:08.410Z,26.20
2017-11-30T03:00:35.939Z,27.50
2017-11-30T03:03:03.428Z,30.53
2017-11-30T03:05:30.935Z,25.90
2017-11-30T03:07:59.198Z,25.67
2017-11-30T03:10:26.708Z,26.27
2017-11-30T03:12:54.188Z,24.97
2017-11-30T03:15:21.703Z,24.30
2017-11-30T03:17:49.190Z,27.70
2017-11-30T03:20:16.696Z,30.13
2017-11-30T03:22:44.181Z,27.83
2017-11-30T03:25:11.690Z,28.30
2017-11-30T03:27:39.168Z,31.40
2017-11-30T03:30:06.682Z,27.00
2017-11-30T03:32:34.171Z,29.37
2017-11-30T03:35:01.677Z,29.57
2017-11-30T03:37:29.175Z,29.83
2017-11-30T03:39:57.458Z,28.47
2017-11-30T03:42:25.719Z,25.47
2017-11-30T03:44:53.217Z,30.20
2017-11-30T03:47:20.713Z,25.90
2017-11-30T03:49:48.225Z,31.37
2017-11-30T03:52:15.712Z,28.67
2017-11-30T03:54:43.235Z,30.20
2017-11-30T03:57:10.728Z,30.90
2017-11-30T03:59:38.243Z,32.83
2017-11-30T04:02:06.597Z,27.90
2017-11-30T04:04:34.116Z,30.80
2017-11-30T04:07:01.613Z,24.90
2017-11-30T04:09:29.117Z,30.00
2017-11-30T04:11:56.621Z,33.77
2017-11-30T04:14:24.130Z,35.37
2017-11-30T04:16:51.655Z,29.97
2017-11-30T04:19:19.126Z,30.13
2017-11-30T04:21:47.409Z,31.57
2017-11-30T04:24:15.665Z,30.97
2017-11-30T04:26:43.175Z,29.30
2017-11-30T04:29:10.678Z,30.70
2017-11-30T04:31:38.181Z,31.73
2017-11-30T04:34:05.678Z,30.77
2017-11-30T04:36:33.951Z,29.77
2017-11-30T04:39:02.227Z,31.57
2017-11-30T04:41:29.737Z,34.77
2017-11-30T04:43:57.227Z,34.83
2017-11-30T04:46:24.730Z,31.00
2017-11-30T04:48:52.237Z,29.40
2017-11-30T04:51:19.760Z,30.83
2017-11-30T04:53:47.246Z,30.33
2017-11-30T04:56:14.758Z,36.10
2017-11-30T04:58:42.241Z,30.77
2017-11-30T05:01:09.746Z,37.13
2017-11-30T05:03:37.249Z,36.67
2017-11-30T05:06:05.504Z,41.07
2017-11-30T05:08:33.041Z,32.17
2017-11-30T05:11:00.525Z,34.13
2017-11-30T05:13:28.057Z,36.97
2017-11-30T05:15:55.549Z,29.73
2017-11-30T05:18:23.041Z,31.67
2017-11-30T05:20:50.546Z,203.33
2017-11-30T05:23:18.038Z,142.13
2017-11-30T05:25:46.314Z,45.23
2017-11-30T05:28:13.800Z,49.33
2017-11-30T05:30:42.090Z,46.17
2017-11-30T05:33:10.338Z,35.63
2017-11-30T05:35:37.821Z,36.13
2017-11-30T05:38:06.096Z,34.93
2017-11-30T05:40:33.584Z,38.33
2017-11-30T05:43:01.087Z,33.50
2017-11-30T05:45:28.569Z,34.87
2017-11-30T05:47:56.084Z,30.20
2017-11-30T05:50:23.577Z,31.30
2017-11-30T05:52:51.846Z,31.90
2017-11-30T05:55:19.350Z,28.83
2017-11-30T05:57:46.868Z,27.80
2017-11-30T06:00:20.633Z,29.83
2017-11-30T06:02:48.160Z,28.17
2017-11-30T06:05:15.648Z,37.07
2017-11-30T06:07:43.133Z,28.50
2017-11-30T06:10:11.413Z,26.00
2017-11-30T06:12:38.913Z,24.17
2017-11-30T06:15:06.424Z,24.90
2017-11-30T06:17:33.920Z,27.20
2017-11-30T06:20:01.560Z,26.13
2017-11-30T06:22:29.053Z,22.97
2017-11-30T06:24:56.572Z,27.47
2017-11-30T06:27:24.057Z,23.57
2017-11-30T06:29:51.555Z,26.57
2017-11-30T06:32:19.067Z,26.10
2017-11-30T06:34:47.326Z,29.90
2017-11-30T06:37:14.825Z,25.53
2017-11-30T06:39:43.093Z,25.90
2017-11-30T06:42:10.605Z,23.40
2017-11-30T06:44:38.096Z,26.40
2017-11-30T06:47:05.982Z,25.67
2017-11-30T06:49:33.561Z,44.13
2017-11-30T06:52:01.074Z,46.67
2017-11-30T06:54:29.330Z,79.23
2017-11-30T06:56:56.811Z,27.10
2017-11-30T06:59:24.315Z,27.37
2017-11-30T07:01:51.804Z,28.23
2017-11-30T07:04:19.313Z,27.90
2017-11-30T07:06:47.577Z,22.20
2017-11-30T07:09:15.085Z,23.30
2017-11-30T07:11:43.692Z,27.63
2017-11-30T07:14:11.956Z,22.53
2017-11-30T07:16:39.458Z,25.83
2017-11-30T07:19:06.973Z,24.20
2017-11-30T07:21:34.481Z,26.10
2017-11-30T07:24:01.993Z,28.40
2017-11-30T07:26:29.504Z,26.47
2017-11-30T07:28:57.009Z,24.83
2017-11-30T07:31:25.293Z,25.77
2017-11-30T07:33:53.566Z,23.77
2017-11-30T07:36:21.831Z,25.37
2017-11-30T07:38:49.337Z,27.13
2017-11-30T07:41:17.599Z,33.70
2017-11-30T07:43:45.109Z,31.27
2017-11-30T07:46:12.598Z,27.23
2017-11-30T07:48:40.100Z,28.00
2017-11-30T07:51:07.585Z,24.03
2017-11-30T07:53:35.071Z,24.63
2017-11-30T07:56:03.346Z,28.50
2017-11-30T07:58:31.754Z,30.27
2017-11-30T08:01:00.026Z,27.00
2017-11-30T08:03:27.530Z,24.00
2017-11-30T08:05:55.039Z,47.43
2017-11-30T08:08:22.530Z,30.30
2017-11-30T08:10:50.040Z,36.10
2017-11-30T08:13:17.525Z,31.57
2017-11-30T08:15:45.038Z,27.23
2017-11-30T08:18:17.201Z,25.33
2017-11-30T08:20:44.709Z,26.23
2017-11-30T08:23:12.959Z,31.20
2017-11-30T08:25:40.506Z,29.50
2017-11-30T08:28:07.993Z,27.97
2017-11-30T08:30:35.497Z,26.77
2017-11-30T08:33:03.013Z,26.50
2017-11-30T08:35:30.811Z,25.00
2017-11-30T08:37:58.365Z,26.30
2017-11-30T08:40:25.895Z,25.40
2017-11-30T08:42:58.478Z,26.97
2017-11-30T08:45:25.993Z,26.27
2017-11-30T08:47:53.491Z,24.77
2017-11-30T08:50:21.006Z,26.40
2017-11-30T08:52:49.261Z,22.30
2017-11-30T08:55:16.794Z,28.90
2017-11-30T08:57:44.278Z,30.00
2017-11-30T09:00:11.765Z,27.20
2017-11-30T09:02:39.274Z,24.50
2017-11-30T09:05:07.547Z,25.90
2017-11-30T09:07:35.078Z,26.60
2017-11-30T09:10:02.575Z,25.20
2017-11-30T09:12:30.106Z,30.43
2017-11-30T09:14:57.605Z,23.00
2017-11-30T09:17:25.113Z,24.27
2017-11-30T09:19:52.593Z,24.87
2017-11-30T09:22:20.883Z,23.67
2017-11-30T09:24:48.381Z,25.73
2017-11-30T09:27:16.814Z,29.40
2017-11-30T09:29:44.682Z,26.33
2017-11-30T09:32:12.248Z,25.53
2017-11-30T09:34:39.740Z,28.33
2017-11-30T09:37:07.249Z,26.90
2017-11-30T09:39:34.736Z,27.23
2017-11-30T09:42:02.269Z,27.20
2017-11-30T09:44:30.811Z,26.10
2017-11-30T09:46:58.345Z,23.73
2017-11-30T09:49:26.601Z,24.83
2017-11-30T09:51:54.141Z,25.33
2017-11-30T09:54:21.633Z,27.13
2017-11-30T09:56:49.144Z,24.67
2017-11-30T09:59:17.412Z,20.53
2017-11-30T10:01:46.545Z,19.20
2017-11-30T10:04:14.036Z,22.70
2017-11-30T10:06:41.534Z,21.80
2017-11-30T10:09:09.041Z,23.77
2017-11-30T10:11:37.299Z,21.67
2017-11-30T10:14:04.834Z,21.37
2017-11-30T10:16:32.333Z,25.47
2017-11-30T10:19:00.210Z,20.53
2017-11-30T10:21:27.704Z,32.03
2017-11-30T10:23:55.982Z,22.97
2017-11-30T10:26:23.478Z,23.80
2017-11-30T10:28:51.758Z,19.30
2017-11-30T10:31:20.016Z,17.73
2017-11-30T10:33:47.516Z,20.10
2017-11-30T10:36:15.006Z,20.43
2017-11-30T10:38:42.508Z,20.57
2017-11-30T10:41:10.002Z,21.97
2017-11-30T10:43:37.517Z,19.70
2017-11-30T10:46:05.014Z,15.43
2017-11-30T10:48:32.521Z,17.47
2017-11-30T10:51:00.008Z,17.20
2017-11-30T10:53:27.526Z,19.17
2017-11-30T10:55:55.018Z,17.47
2017-11-30T10:58:22.534Z,16.53
2017-11-30T11:00:50.790Z,20.07
2017-11-30T11:03:18.349Z,26.57
2017-11-30T11:05:45.876Z,25.63
2017-11-30T11:08:13.365Z,24.93
2017-11-30T11:10:40.875Z,28.67
2017-11-30T11:13:08.362Z,31.83
2017-11-30T11:15:36.633Z,27.50
2017-11-30T11:18:04.308Z,29.87
2017-11-30T11:20:31.809Z,25.77
2017-11-30T11:23:00.060Z,30.87
2017-11-30T11:25:27.634Z,23.47
2017-11-30T11:27:55.129Z,20.63
2017-11-30T11:30:23.408Z,19.70
2017-11-30T11:33:01.557Z,19.23
2017-11-30T11:35:29.069Z,18.70
2017-11-30T11:37:56.561Z,20.10
2017-11-30T11:40:24.079Z,18.70
2017-11-30T11:42:51.576Z,24.50
2017-11-30T11:45:19.077Z,24.87
2017-11-30T11:47:46.569Z,22.53
2017-11-30T11:50:14.841Z,25.10
2017-11-30T11:52:43.093Z,24.80
2017-11-30T11:55:10.605Z,22.57
2017-11-30T11:57:38.861Z,23.70
2017-11-30T12:00:06.369Z,21.90
2017-11-30T12:02:34.640Z,27.00
2017-11-30T12:05:02.153Z,21.27
2017-11-30T12:07:36.498Z,22.03
2017-11-30T12:10:04.074Z,22.63
2017-11-30T12:12:31.566Z,23.83
2017-11-30T12:14:59.054Z,23.77
2017-11-30T12:17:26.570Z,22.73
2017-11-30T12:19:54.056Z,19.83
2017-11-30T12:22:21.569Z,23.87
2017-11-30T12:24:50.045Z,24.17
2017-11-30T12:27:18.344Z,20.90
2017-11-30T12:29:45.845Z,18.60
2017-11-30T12:32:13.349Z,23.03
2017-11-30T12:34:40.834Z,18.60
2017-11-30T12:37:08.338Z,19.70
2017-11-30T12:39:36.597Z,21.60
2017-11-30T12:42:04.107Z,20.03
2017-11-30T12:44:32.370Z,21.00
2017-11-30T12:46:59.885Z,20.87
2017-11-30T12:49:27.373Z,18.03
2017-11-30T12:51:54.900Z,22.50
2017-11-30T12:54:23.163Z,15.93
2017-11-30T12:56:50.666Z,16.27
2017-11-30T12:59:18.927Z,20.83
2017-11-30T13:01:46.428Z,17.13
2017-11-30T13:04:13.952Z,18.50
2017-11-30T13:06:41.455Z,16.23
2017-11-30T13:09:09.704Z,16.77
2017-11-30T13:11:37.224Z,17.97
2017-11-30T13:14:05.483Z,17.60
2017-11-30T13:16:43.455Z,17.67
2017-11-30T13:19:10.945Z,13.07
2017-11-30T13:21:38.428Z,16.37
2017-11-30T13:24:05.927Z,12.10
2017-11-30T13:26:34.176Z,12.80
2017-11-30T13:29:02.677Z,14.57
2017-11-30T13:31:30.170Z,11.37
2017-11-30T13:33:57.680Z,15.30
2017-11-30T13:36:25.155Z,14.77
2017-11-30T13:38:53.443Z,12.60
2017-11-30T13:41:20.939Z,12.23
2017-11-30T13:43:48.452Z,12.80
2017-11-30T13:46:16.896Z,11.80
2017-11-30T13:48:44.403Z,12.87
2017-11-30T13:51:17.854Z,16.60
2017-11-30T13:53:45.367Z,17.40
2017-11-30T13:56:12.868Z,18.93
2017-11-30T13:58:41.136Z,15.70
2017-11-30T14:01:08.612Z,15.23
2017-11-30T14:03:36.902Z,14.57
2017-11-30T14:06:05.172Z,15.40
2017-11-30T14:08:32.681Z,15.90
2017-11-30T14:11:01.943Z,17.57
2017-11-30T14:13:29.473Z,16.87
2017-11-30T14:15:56.969Z,22.30
2017-11-30T14:18:24.484Z,15.00
2017-11-30T14:20:51.981Z,17.90
2017-11-30T14:23:19.533Z,18.57
2017-11-30T14:25:47.788Z,17.53
2017-11-30T14:28:15.283Z,16.43
2017-11-30T14:30:42.817Z,14.73
2017-11-30T14:33:10.361Z,18.37
2017-11-30T14:35:37.877Z,16.40
2017-11-30T14:38:05.368Z,16.23
2017-11-30T14:40:39.163Z,16.97
2017-11-30T14:43:06.660Z,18.00
2017-11-30T14:45:34.936Z,16.73
2017-11-30T14:48:02.422Z,21.00
2017-11-30T14:50:30.691Z,17.30
2017-11-30T14:52:59.048Z,24.73
2017-11-30T14:55:26.564Z,19.90
2017-11-30T14:57:54.632Z,16.87
2017-11-30T15:00:22.147Z,16.70
2017-11-30T15:02:49.641Z,17.57
2017-11-30T15:05:17.180Z,20.30
2017-11-30T15:07:45.024Z,16.03
2017-11-30T15:10:12.564Z,17.03
2017-11-30T15:12:40.047Z,16.10
2017-11-30T15:15:07.558Z,18.73
2017-11-30T15:17:35.803Z,16.50
2017-11-30T15:20:04.141Z,20.70
2017-11-30T15:22:32.391Z,16.70
2017-11-30T15:24:59.896Z,16.67
2017-11-30T15:27:28.137Z,16.77
2017-11-30T15:29:55.656Z,18.77
2017-11-30T15:32:23.940Z,19.57
2017-11-30T15:34:52.440Z,15.60
2017-11-30T15:37:20.860Z,18.27
2017-11-30T15:39:48.359Z,18.33
2017-11-30T15:42:15.910Z,17.90
2017-11-30T15:44:43.408Z,18.07
2017-11-30T15:47:10.912Z,20.33
2017-11-30T15:49:39.167Z,22.13
2017-11-30T15:52:13.833Z,18.93
2017-11-30T15:54:42.089Z,23.00
2017-11-30T15:57:09.591Z,20.30
2017-11-30T15:59:37.838Z,21.47
2017-11-30T16:02:05.351Z,18.60
2017-11-30T16:04:33.599Z,21.70
2017-11-30T16:07:01.096Z,20.77
2017-11-30T16:09:28.571Z,23.90
2017-11-30T16:11:56.075Z,21.17
2017-11-30T16:14:23.556Z,23.10
2017-11-30T16:16:51.089Z,24.23
2017-11-30T16:19:18.559Z,22.30
2017-11-30T16:21:46.828Z,19.33
2017-11-30T16:24:14.313Z,29.37
2017-11-30T16:26:42.590Z,23.27
2017-11-30T16:29:10.100Z,19.27
2017-11-30T16:31:37.610Z,18.67
2017-11-30T16:34:05.103Z,20.43
2017-11-30T16:36:32.610Z,19.57
2017-11-30T16:39:00.119Z,22.83
2017-11-30T16:41:27.707Z,17.10
2017-11-30T16:43:55.307Z,19.17
2017-11-30T16:46:23.776Z,21.03
2017-11-30T16:48:53.089Z,15.30
2017-11-30T16:51:20.583Z,18.93
2017-11-30T16:53:48.869Z,10.33
2017-11-30T16:56:23.083Z,13.30
2017-11-30T16:58:50.601Z,15.67
2017-11-30T17:01:18.086Z,12.50
2017-11-30T17:03:45.588Z,10.60
2017-11-30T17:06:13.114Z,12.87
2017-11-30T17:08:40.639Z,9.13
2017-11-30T17:11:08.925Z,11.60
2017-11-30T17:13:37.216Z,11.30
2017-11-30T17:16:05.477Z,10.90
2017-11-30T17:18:32.986Z,9.63
2017-11-30T17:21:01.232Z,9.17
2017-11-30T17:23:28.739Z,9.07
2017-11-30T17:25:56.992Z,11.07
2017-11-30T17:28:24.487Z,10.40
2017-11-30T17:30:52.751Z,10.17
2017-11-30T17:33:20.284Z,11.13
2017-11-30T17:35:47.760Z,10.43
2017-11-30T17:38:16.024Z,11.70
2017-11-30T17:40:44.301Z,12.03
2017-11-30T17:43:12.584Z,12.40
2017-11-30T17:45:40.086Z,12.87
2017-11-30T17:48:07.606Z,14.50
2017-11-30T17:50:35.101Z,18.43
2017-11-30T17:53:03.393Z,11.60
2017-11-30T17:55:31.651Z,12.50
2017-11-30T17:57:59.151Z,13.10
2017-11-30T18:00:27.429Z,14.33
2017-11-30T18:02:54.921Z,12.20
2017-11-30T18:05:23.195Z,13.27
2017-11-30T18:07:51.449Z,13.30
2017-11-30T18:10:34.038Z,16.80
2017-11-30T18:13:01.536Z,15.27
2017-11-30T18:15:29.048Z,16.37
2017-11-30T18:18:18.740Z,14.70
2017-11-30T18:20:47.018Z,14.53
2017-11-30T18:23:14.504Z,14.70
2017-11-30T18:25:42.791Z,13.60
2017-11-30T18:28:11.058Z,16.83
2017-11-30T18:30:38.585Z,14.83
2017-11-30T18:33:06.075Z,14.23
2017-11-30T18:35:33.568Z,12.37
2017-11-30T18:38:01.059Z,14.13
2017-11-30T18:40:28.577Z,14.47
2017-11-30T18:42:56.056Z,17.23
2017-11-30T18:45:23.564Z,14.30
2017-11-30T18:47:51.882Z,14.47
2017-11-30T18:50:19.396Z,25.30
2017-11-30T18:52:46.892Z,19.53
2017-11-30T18:55:14.396Z,14.53
2017-11-30T18:57:41.888Z,12.30
2017-11-30T19:00:09.446Z,11.07
2017-11-30T19:02:36.941Z,13.60
2017-11-30T19:05:04.440Z,12.37
2017-11-30T19:07:31.915Z,11.17
2017-11-30T19:09:59.413Z,13.40
2017-11-30T19:12:26.903Z,10.30
2017-11-30T19:14:54.403Z,15.30
2017-11-30T19:17:21.880Z,10.70
2017-11-30T19:19:49.386Z,8.97
2017-11-30T19:22:16.875Z,7.90
2017-11-30T19:24:44.393Z,7.67
2017-11-30T19:27:11.868Z,8.70
2017-11-30T19:29:39.369Z,7.47
2017-11-30T19:32:06.857Z,8.23
2017-11-30T19:34:34.361Z,12.50
2017-11-30T19:37:01.844Z,11.50
2017-11-30T19:39:29.352Z,11.27
2017-11-30T19:41:56.845Z,12.50
2017-11-30T19:44:24.348Z,15.00
2017-11-30T19:46:51.827Z,14.47
2017-11-30T19:49:19.321Z,13.27
2017-11-30T19:51:47.572Z,12.80
2017-11-30T19:54:15.075Z,9.53
2017-11-30T19:56:43.320Z,8.50
2017-11-30T19:59:10.811Z,9.90
2017-11-30T20:01:38.299Z,10.67
2017-11-30T20:04:06.568Z,9.63
2017-11-30T20:06:34.047Z,10.17
2017-11-30T20:09:01.568Z,11.67
2017-11-30T20:11:29.064Z,10.63
2017-11-30T20:13:56.548Z,12.37
2017-11-30T20:16:24.052Z,12.10
2017-11-30T20:18:51.543Z,14.40
2017-11-30T20:21:19.066Z,13.10
2017-11-30T20:23:46.547Z,11.70
2017-11-30T20:26:14.822Z,10.53
2017-11-30T20:28:42.308Z,11.40
2017-11-30T20:31:10.579Z,13.03
2017-11-30T20:33:38.069Z,14.50
2017-11-30T20:36:06.343Z,15.67
2017-11-30T20:38:33.851Z,19.80
2017-11-30T20:41:01.362Z,15.87
2017-11-30T20:43:28.853Z,15.83
2017-11-30T20:45:56.357Z,17.03
2017-11-30T20:48:23.839Z,17.80
2017-11-30T20:50:51.375Z,17.07
2017-11-30T20:53:19.645Z,16.90
2017-11-30T20:55:47.144Z,16.60
2017-11-30T20:58:15.387Z,21.80
2017-11-30T21:00:42.895Z,15.50
2017-11-30T21:03:11.140Z,21.20
2017-11-30T21:05:38.643Z,17.43
2017-11-30T21:08:06.904Z,19.30
2017-11-30T21:10:34.409Z,18.80
2017-11-30T21:13:02.660Z,15.50
2017-11-30T21:15:30.173Z,19.83
2017-11-30T21:17:58.422Z,20.00
2017-11-30T21:20:25.932Z,17.07
2017-11-30T21:22:54.179Z,17.93
2017-11-30T21:25:21.698Z,22.30
2017-11-30T21:27:49.950Z,21.27
2017-11-30T21:30:17.456Z,17.97
2017-11-30T21:32:44.956Z,19.23
2017-11-30T21:35:13.227Z,23.60
2017-11-30T21:37:40.716Z,18.83
2017-11-30T21:40:08.220Z,22.60
2017-11-30T21:42:35.720Z,23.83
2017-11-30T21:45:03.992Z,19.20
2017-11-30T21:47:31.475Z,26.80
2017-11-30T21:49:59.756Z,21.60
2017-11-30T21:52:28.013Z,20.20
2017-11-30T21:54:55.520Z,24.30
2017-11-30T21:57:23.772Z,18.13
2017-11-30T21:59:51.276Z,22.83
2017-11-30T22:02:19.525Z,27.30
2017-11-30T22:04:47.028Z,24.83
2017-11-30T22:07:15.280Z,23.87
2017-11-30T22:09:42.769Z,22.80
2017-11-30T22:12:10.272Z,18.70
2017-11-30T22:14:38.532Z,25.20
2017-11-30T22:17:06.040Z,24.50
2017-11-30T22:19:33.539Z,22.40
2017-11-30T22:22:01.043Z,23.40
2017-11-30T22:24:28.528Z,23.60
2017-11-30T22:26:56.799Z,25.13
2017-11-30T22:29:24.288Z,25.57
2017-11-30T22:31:52.556Z,22.10
2017-11-30T22:34:20.047Z,21.37
2017-11-30T22:36:48.312Z,18.93
2017-11-30T22:39:15.804Z,21.50
2017-11-30T22:41:44.071Z,18.57
2017-11-30T22:44:11.569Z,23.33
2017-11-30T22:46:39.852Z,23.93
2017-11-30T22:49:08.099Z,21.33
2017-11-30T22:51:35.605Z,26.83
2017-11-30T22:54:03.868Z,23.63
2017-11-30T22:56:31.384Z,26.40
2017-11-30T22:58:58.871Z,18.87
2017-11-30T23:01:26.379Z,22.90
2017-11-30T23:03:53.861Z,20.90
2017-11-30T23:06:21.371Z,21.03
2017-11-30T23:08:48.873Z,23.53
2017-11-30T23:11:16.378Z,25.20
2017-11-30T23:13:43.868Z,18.80
2017-11-30T23:16:12.141Z,22.50
2017-11-30T23:18:39.628Z,22.53
2017-11-30T23:21:07.905Z,25.67
2017-11-30T23:23:36.156Z,21.97
2017-11-30T23:26:03.681Z,18.60
2017-11-30T23:28:31.932Z,21.30
2017-11-30T23:30:59.436Z,21.10
2017-11-30T23:33:26.930Z,20.70
2017-11-30T23:35:54.431Z,27.53
2017-11-30T23:38:21.919Z,19.87
2017-11-30T23:40:49.428Z,18.87
2017-11-30T23:43:16.915Z,17.70
2017-11-30T23:45:44.426Z,17.33
2017-11-30T23:48:11.920Z,23.33
2017-11-30T23:50:40.193Z,21.47
2017-11-30T23:53:08.448Z,19.60
2017-11-30T23:55:35.985Z,18.37
2017-11-30T23:58:04.215Z,26.70
